Time;durP1;ratioP1;P1;durP2;ratioP2;P2;SDS_P1;SDS_P2;PMS_P1;PMS_P2;Temp;Humidity;BMP_temperature;BMP_pressure;BME280_temperature;BME280_humidity;BME280_pressure;Samples;Min_cycle;Max_cycle;Signal;HPM_P1;HPM_P2
2023/06/17 00:01:46;;;;;;;29.83;10.43;;;;;;;;;;4973859;28;20043;-70
2023/06/17 00:04:11;;;;;;;17.38;10.45;;;;;;;;;;4976035;28;21848;-73
2023/06/17 00:06:36;;;;;;;16.60;10.53;;;;;;;;;;4976367;28;20023;-73
2023/06/17 00:09:04;;;;;;;16.58;10.55;;;;;;;15.56;nan;99977.41;4975722;28;20311;-73
2023/06/17 00:11:29;;;;;;;19.83;10.13;;;;;;;;;;4977516;28;20034;-73
2023/06/17 00:13:54;;;;;;;18.83;10.13;;;;;;;;;;4981125;28;20034;-73
2023/06/17 00:16:20;;;;;;;18.45;10.25;;;;;;;;;;4981451;28;20038;-73
2023/06/17 00:18:47;;;;;;;20.35;10.80;;;;;;;;;;4969920;28;20035;-73
2023/06/17 00:21:13;;;;;;;20.55;11.52;;;;;;;;;;4967508;28;20023;-73
2023/06/17 00:23:38;;;;;;;22.13;10.38;;;;;;;;;;4980415;28;20037;-73
2023/06/17 00:26:03;;;;;;;19.07;9.33;;;;;;;;;;4966095;28;20027;-73
2023/06/17 00:28:28;;;;;;;19.53;9.97;;;;;;;;;;4979385;28;20042;-70
2023/06/17 00:30:54;;;;;;;14.07;9.43;;;;;;;;;;4979042;28;20804;-71
2023/06/17 00:33:19;;;;;;;16.85;9.00;;;;;;;;;;4980134;28;20340;-70
2023/06/17 00:35:44;;;;;;;16.50;9.53;;;;;;;;;;4979951;28;20030;-70
2023/06/17 00:38:10;;;;;;;22.77;9.97;;;;;;;;;;4979914;28;20026;-70
2023/06/17 00:40:35;;;;;;;15.57;9.40;;;;;;;;;;4980566;28;20288;-70
2023/06/17 00:43:00;;;;;;;14.70;9.25;;;;;;;;;;4978253;28;20392;-71
2023/06/17 00:45:25;;;;;;;26.58;9.18;;;;;;;;;;4978310;28;20121;-70
2023/06/17 00:47:51;;;;;;;23.43;9.60;;;;;;;;;;4980072;28;20022;-70
2023/06/17 00:50:17;;;;;;;30.40;10.20;;;;;;;;;;4969250;28;20026;-70
2023/06/17 00:52:44;;;;;;;22.42;9.57;;;;;;;;;;4982950;28;20037;-70
2023/06/17 00:55:10;;;;;;;15.93;8.88;;;;;;;;;;4981059;28;20030;-70
2023/06/17 00:57:35;;;;;;;16.48;8.48;;;;;;;;;;4978683;28;20038;-69
2023/06/17 01:00:01;;;;;;;15.43;9.15;;;;;;;;;;4977630;28;20707;-73
2023/06/17 01:02:27;;;;;;;15.43;9.07;;;;;;;;;;4978843;28;20030;-70
2023/06/17 01:04:53;;;;;;;21.23;9.48;;;;;;;;;;4970964;28;20596;-70
2023/06/17 01:07:26;;;;;;;12.63;8.88;;;;;;;;;;4980522;28;20042;-70
2023/06/17 01:09:56;;;;;;;12.43;8.60;;;;;;;;;;4967835;28;20035;-71
2023/06/17 01:12:24;;;;;;;23.13;9.00;;;;;;;;;;4981634;28;20035;-70
2023/06/17 01:14:50;;;;;;;23.65;9.90;;;;;;;;;;4978857;28;20118;-70
2023/06/17 01:17:18;;;;;;;19.17;8.88;;;;;;;;;;4984795;28;20029;-73
2023/06/17 01:19:48;;;;;;;13.50;8.75;;;;;;;;;;4981295;28;20034;-74
2023/06/17 01:22:15;;;;;;;15.93;8.43;;;;;;;;;;4980580;28;20035;-74
2023/06/17 01:24:40;;;;;;;14.25;7.93;;;;;;;;;;4980238;28;20460;-74
2023/06/17 01:27:06;;;;;;;16.83;8.15;;;;;;;;;;4975846;28;20117;-74
2023/06/17 01:29:32;;;;;;;15.20;8.30;;;;;;;;;;4980322;28;20098;-74
2023/06/17 01:31:58;;;;;;;16.55;8.25;;;;;;;;;;4979212;28;20179;-74
2023/06/17 01:34:33;;;;;;;11.32;7.78;;;;;;;;;;4976773;28;20617;-73
2023/06/17 01:36:59;;;;;;;14.57;8.07;;;;;;;;;;4981236;28;20030;-73
2023/06/17 01:39:25;;;;;;;16.83;8.00;;;;;;;;;;4978466;28;20035;-73
2023/06/17 01:41:52;;;;;;;10.68;7.25;;;;;;;;;;4977930;28;20049;-74
2023/06/17 01:44:18;;;;;;;9.93;6.93;;;;;;;;;;4980473;28;20114;-73
2023/06/17 01:46:44;;;;;;;13.20;7.15;;;;;;;;;;4979591;28;20502;-73
2023/06/17 01:49:09;;;;;;;14.25;7.57;;;;;;;;;;4978341;28;20027;-73
2023/06/17 01:51:35;;;;;;;14.63;7.30;;;;;;;;;;4968163;28;20583;-71
2023/06/17 01:54:00;;;;;;;15.10;7.63;;;;;;;;;;4979213;28;20037;-71
2023/06/17 01:56:25;;;;;;;14.57;7.28;;;;;;;;;;4969772;28;20034;-71
2023/06/17 01:58:50;;;;;;;12.93;7.20;;;;;;;;;;4965423;28;20022;-71
2023/06/17 02:01:16;;;;;;;16.77;7.30;;;;;;;;;;4980924;28;20046;-71
2023/06/17 02:03:42;;;;;;;12.03;7.20;;;;;;;;;;4977037;28;20069;-70
2023/06/17 02:06:07;;;;;;;14.65;7.65;;;;;;;15.07;nan;99960.22;4976694;28;20930;-71
2023/06/17 02:08:34;;;;;;;12.88;7.32;;;;;;;;;;4977736;28;20027;-71
2023/06/17 02:11:00;;;;;;;9.95;7.03;;;;;;;;;;4980973;28;20030;-71
2023/06/17 02:13:25;;;;;;;14.70;7.78;;;;;;;;;;4978752;28;20061;-71
2023/06/17 02:15:50;;;;;;;9.23;6.97;;;;;;;;;;4979332;28;20110;-71
2023/06/17 02:18:16;;;;;;;10.50;7.10;;;;;;;;;;4967967;28;20774;-70
2023/06/17 02:20:41;;;;;;;9.90;6.93;;;;;;;;;;4980681;28;20104;-71
2023/06/17 02:23:07;;;;;;;12.93;7.60;;;;;;;;;;4977909;28;20049;-71
2023/06/17 02:25:33;;;;;;;15.48;7.43;;;;;;;;;;4968604;28;20272;-71
2023/06/17 02:27:58;;;;;;;18.65;8.60;;;;;;;;;;4978233;28;20038;-71
2023/06/17 02:30:23;;;;;;;12.63;7.77;;;;;;;;;;4983055;28;20034;-72
2023/06/17 02:32:48;;;;;;;16.10;7.90;;;;;;;;;;4976438;28;20084;-72
2023/06/17 02:35:14;;;;;;;12.03;7.40;;;;;;;;;;4980761;28;20691;-71
2023/06/17 02:37:40;;;;;;;11.27;7.53;;;;;;;;;;4974612;28;20065;-71
2023/06/17 02:40:08;;;;;;;16.83;7.85;;;;;;;;;;4963139;28;20128;-70
2023/06/17 02:42:34;;;;;;;20.35;8.73;;;;;;;;;;4977642;28;20034;-70
2023/06/17 02:45:00;;;;;;;17.60;8.38;;;;;;;;;;4978109;28;20036;-71
2023/06/17 02:47:25;;;;;;;17.27;9.40;;;;;;;;;;4976238;28;20026;-71
2023/06/17 02:49:50;;;;;;;21.20;8.90;;;;;;;;;;4959336;28;20279;-71
2023/06/17 02:52:16;;;;;;;14.73;8.77;;;;;;;;;;4978557;28;20504;-71
2023/06/17 02:54:42;;;;;;;18.17;8.80;;;;;;;;;;4976647;28;20018;-73
2023/06/17 02:57:08;;;;;;;18.27;8.68;;;;;;;;;;4961148;28;20272;-73
2023/06/17 02:59:35;;;;;;;12.65;7.95;;;;;;;;;;4979490;28;20026;-73
2023/06/17 03:02:00;;;;;;;16.42;8.52;;;;;;;;;;4976385;28;20795;-70
2023/06/17 03:04:34;;;;;;;15.80;7.57;;;;;;;;;;4975198;28;20073;-73
2023/06/17 03:06:59;;;;;;;14.07;7.60;;;;;;;;;;4976146;28;20066;-73
2023/06/17 03:09:26;;;;;;;14.65;7.18;;;;;;;;;;4978515;28;20089;-73
2023/06/17 03:11:51;;;;;;;14.13;7.00;;;;;;;;;;4976779;28;20022;-74
2023/06/17 03:14:19;;;;;;;13.93;8.05;;;;;;;;;;4977295;28;20031;-73
2023/06/17 03:16:44;;;;;;;15.43;7.30;;;;;;;;;;4964468;28;20022;-72
2023/06/17 03:19:09;;;;;;;11.88;7.60;;;;;;;;;;4977837;28;20076;-70
2023/06/17 03:21:40;;;;;;;13.57;7.80;;;;;;;;;;4976299;28;20038;-71
2023/06/17 03:24:06;;;;;;;20.38;7.20;;;;;;;;;;4973797;28;20272;-71
2023/06/17 03:26:31;;;;;;;17.30;7.40;;;;;;;;;;4976423;28;20957;-72
2023/06/17 03:28:57;;;;;;;11.93;6.80;;;;;;;;;;4976917;28;20030;-71
2023/06/17 03:31:23;;;;;;;14.63;7.22;;;;;;;;;;4978096;28;20053;-70
2023/06/17 03:33:50;;;;;;;13.93;6.70;;;;;;;;;;4977280;28;20164;-70
2023/06/17 03:36:17;;;;;;;15.38;6.53;;;;;;;;;;4977719;28;20041;-71
2023/06/17 03:38:43;;;;;;;11.75;6.65;;;;;;;;;;4980155;28;20050;-69
2023/06/17 03:41:09;;;;;;;14.70;7.30;;;;;;;;;;4978173;28;20034;-70
2023/06/17 03:43:34;;;;;;;16.05;7.28;;;;;;;;;;4979450;28;20031;-73
2023/06/17 03:45:59;;;;;;;9.95;6.45;;;;;;;;;;4958937;28;20035;-75
2023/06/17 03:48:25;;;;;;;10.97;7.20;;;;;;;;;;4976740;28;20554;-75
2023/06/17 03:50:50;;;;;;;13.52;6.80;;;;;;;;;;4976248;28;20283;-73
2023/06/17 03:53:16;;;;;;;12.33;6.97;;;;;;;;;;4976362;28;20030;-73
2023/06/17 03:55:41;;;;;;;13.00;7.70;;;;;;;;;;4976908;28;20740;-73
2023/06/17 03:58:07;;;;;;;13.00;7.57;;;;;;;;;;4974644;28;20050;-72
2023/06/17 04:00:32;;;;;;;14.55;7.88;;;;;;;;;;4978441;28;20125;-73
2023/06/17 04:02:57;;;;;;;20.05;8.02;;;;;;;;;;4963506;28;20392;-73
2023/06/17 04:05:31;;;;;;;11.50;7.50;;;;;;;;;;4961507;28;20054;-72
2023/06/17 04:07:58;;;;;;;16.10;8.02;;;;;;;;;;4971130;28;20829;-71
2023/06/17 04:10:24;;;;;;;13.43;7.20;;;;;;;;;;4977870;28;20109;-71
2023/06/17 04:12:49;;;;;;;15.25;8.15;;;;;;;;;;4960450;28;20507;-71
2023/06/17 04:15:14;;;;;;;14.65;7.15;;;;;;;;;;4977619;28;20030;-70
2023/06/17 04:17:40;;;;;;;15.00;7.37;;;;;;;;;;4979940;28;20035;-70
2023/06/17 04:20:10;;;;;;;16.70;8.23;;;;;;;;;;4974565;28;20038;-71
2023/06/17 04:22:37;;;;;;;14.07;7.38;;;;;;;;;;4962254;28;20507;-70
2023/06/17 04:25:02;;;;;;;12.27;7.93;;;;;;;;;;4977019;28;20128;-70
2023/06/17 04:27:27;;;;;;;13.65;7.50;;;;;;;;;;4977396;28;20492;-71
2023/06/17 04:29:56;;;;;;;12.93;8.03;;;;;;;14.77;nan;100045.00;4978501;28;20027;-73
2023/06/17 04:32:21;;;;;;;13.45;8.05;;;;;;;;;;4976960;28;20342;-70
2023/06/17 04:34:47;;;;;;;16.85;8.50;;;;;;;;;;4975673;28;20034;-70
2023/06/17 04:37:14;;;;;;;12.82;8.23;;;;;;;;;;4964731;28;20504;-70
2023/06/17 04:39:39;;;;;;;16.15;8.38;;;;;;;;;;4959724;28;20570;-70
2023/06/17 04:42:05;;;;;;;14.63;8.05;;;;;;;;;;4974363;28;20027;-69
2023/06/17 04:44:31;;;;;;;17.45;8.32;;;;;;;;;;4978497;28;20557;-72
2023/06/17 04:46:57;;;;;;;17.75;8.55;;;;;;;;;;4975283;28;20125;-72
2023/06/17 04:49:22;;;;;;;17.65;9.05;;;;;;;;;;4966952;28;20110;-69
2023/06/17 04:51:48;;;;;;;15.15;9.07;;;;;;;;;;4975209;28;20080;-69
2023/06/17 04:54:13;;;;;;;18.52;8.20;;;;;;;;;;4976747;28;20023;-70
2023/06/17 04:56:39;;;;;;;12.30;8.13;;;;;;;;;;4974847;28;20057;-70
2023/06/17 04:59:04;;;;;;;15.77;8.67;;;;;;;;;;4977171;28;20866;-70
2023/06/17 05:01:29;;;;;;;17.27;8.80;;;;;;;;;;4980316;28;20295;-69
2023/06/17 05:03:54;;;;;;;19.27;9.07;;;;;;;;;;4978829;28;20178;-70
2023/06/17 05:06:20;;;;;;;15.10;8.67;;;;;;;;;;4979872;28;20299;-73
2023/06/17 05:08:45;;;;;;;13.95;9.00;;;;;;;;;;4983047;28;20125;-75
2023/06/17 05:11:10;;;;;;;21.92;9.32;;;;;;;;;;4981447;28;20105;-73
2023/06/17 05:13:37;;;;;;;20.07;8.90;;;;;;;;;;4979998;28;20058;-72
2023/06/17 05:16:03;;;;;;;12.77;8.23;;;;;;;;;;4970146;28;20349;-74
2023/06/17 05:18:28;;;;;;;15.55;9.27;;;;;;;;;;4980538;28;20920;-73
2023/06/17 05:20:53;;;;;;;26.17;13.60;;;;;;;;;;4982880;28;20380;-73
2023/06/17 05:23:18;;;;;;;208.83;112.47;;;;;;;;;;4981482;28;20034;-73
2023/06/17 05:25:44;;;;;;;65.60;30.88;;;;;;;;;;4983691;28;20355;-73
2023/06/17 05:28:10;;;;;;;18.95;10.43;;;;;;;;;;4980027;28;20362;-73
2023/06/17 05:30:36;;;;;;;13.05;8.93;;;;;;;;;;4979649;28;20638;-70
2023/06/17 05:33:01;;;;;;;15.77;9.13;;;;;;;;;;4981893;28;20109;-69
2023/06/17 05:35:28;;;;;;;16.37;8.97;;;;;;;;;;4976295;28;20026;-69
2023/06/17 05:37:53;;;;;;;16.05;8.18;;;;;;;;;;4977859;28;20053;-68
2023/06/17 05:40:18;;;;;;;13.17;8.57;;;;;;;;;;4978394;28;20061;-69
2023/06/17 05:42:43;;;;;;;14.20;7.90;;;;;;;;;;4979092;28;20284;-69
2023/06/17 05:45:09;;;;;;;14.60;7.90;;;;;;;;;;4978024;28;20459;-69
2023/06/17 05:47:34;;;;;;;14.13;8.23;;;;;;;;;;4979427;28;20039;-68
2023/06/17 05:49:59;;;;;;;15.05;8.40;;;;;;;;;;4979014;28;20065;-69
2023/06/17 05:52:25;;;;;;;12.23;7.77;;;;;;;;;;4977927;28;20046;-69
2023/06/17 05:54:50;;;;;;;14.30;9.02;;;;;;;;;;4981564;28;20436;-70
2023/06/17 05:57:15;;;;;;;14.80;7.67;;;;;;;;;;4977861;28;20030;-70
2023/06/17 05:59:40;;;;;;;13.73;7.88;;;;;;;;;;4978719;28;20283;-70
2023/06/17 06:02:06;;;;;;;17.63;8.33;;;;;;;;;;4978326;28;20066;-70
2023/06/17 06:04:31;;;;;;;15.63;8.73;;;;;;;;;;4978981;28;20038;-70
2023/06/17 06:06:56;;;;;;;14.47;8.50;;;;;;;;;;4979577;28;20293;-71
2023/06/17 06:09:21;;;;;;;14.55;8.32;;;;;;;;;;4978586;28;20037;-70
2023/06/17 06:11:47;;;;;;;13.53;8.10;;;;;;;;;;4981587;28;20033;-70
2023/06/17 06:14:12;;;;;;;15.07;8.25;;;;;;;;;;4968297;28;20697;-71
2023/06/17 06:16:37;;;;;;;17.92;9.00;;;;;;;;;;4975796;28;20534;-72
2023/06/17 06:19:03;;;;;;;13.63;8.63;;;;;;;;;;4979048;28;20539;-73
2023/06/17 06:21:28;;;;;;;12.93;8.80;;;;;;;;;;4978405;28;20022;-73
2023/06/17 06:23:53;;;;;;;13.60;8.82;;;;;;;;;;4978640;28;20311;-71
2023/06/17 06:26:20;;;;;;;18.08;9.63;;;;;;;;;;4978133;28;20481;-73
2023/06/17 06:28:45;;;;;;;1186.97;173.98;;;;;;;;;;4976839;28;20469;-73
2023/06/17 06:31:10;;;;;;;17.83;12.57;;;;;;;;;;4965666;28;20038;-71
2023/06/17 06:33:35;;;;;;;15.13;9.57;;;;;;;;;;4978058;28;20370;-71
2023/06/17 06:36:02;;;;;;;16.45;9.57;;;;;;;;;;4980468;28;20055;-70
2023/06/17 06:38:27;;;;;;;15.63;8.98;;;;;;;;;;4979532;28;20505;-72
2023/06/17 06:40:53;;;;;;;14.83;9.17;;;;;;;;;;4979239;28;20114;-72
2023/06/17 06:43:18;;;;;;;16.70;8.43;;;;;;;;;;4962705;28;20076;-71
2023/06/17 06:45:43;;;;;;;13.65;9.00;;;;;;;;;;4961819;28;20276;-71
2023/06/17 06:48:08;;;;;;;13.50;8.93;;;;;;;;;;4978517;28;20030;-72
2023/06/17 06:50:34;;;;;;;15.83;9.10;;;;;;;;;;4966047;28;20542;-72
2023/06/17 06:53:05;;;;;;;13.75;9.45;;;;;;;;;;4962019;28;20113;-72
2023/06/17 06:55:31;;;;;;;20.48;9.85;;;;;;;;;;4978086;28;20031;-72
2023/06/17 06:57:56;;;;;;;17.60;9.23;;;;;;;;;;4975472;28;20427;-72
2023/06/17 07:00:22;;;;;;;17.50;9.90;;;;;;;;;;4941364;28;20312;-71
2023/06/17 07:02:47;;;;;;;17.93;9.50;;;;;;;;;;4957608;28;20042;-73
2023/06/17 07:05:12;;;;;;;14.48;9.45;;;;;;;;;;4958272;28;20502;-73
2023/06/17 07:07:37;;;;;;;15.50;10.13;;;;;;;;;;4963978;28;20118;-72
2023/06/17 07:10:03;;;;;;;17.10;9.73;;;;;;;;;;4958602;28;20458;-73
2023/06/17 07:12:28;;;;;;;14.48;8.75;;;;;;;;;;4962146;28;20279;-72
2023/06/17 07:14:53;;;;;;;14.53;9.03;;;;;;;;;;4956520;28;20027;-72
2023/06/17 07:17:18;;;;;;;13.73;9.07;;;;;;;;;;4957121;28;20065;-71
2023/06/17 07:19:44;;;;;;;14.13;8.67;;;;;;;;;;4964429;28;20030;-74
2023/06/17 07:22:09;;;;;;;14.80;9.27;;;;;;;;;;4961280;28;20094;-80
2023/06/17 07:24:35;;;;;;;14.02;9.55;;;;;;;;;;4966477;28;20027;-80
2023/06/17 07:27:00;;;;;;;14.67;9.07;;;;;;;;;;4972192;28;20029;-78
2023/06/17 07:29:25;;;;;;;13.87;9.47;;;;;;;;;;4965304;28;20281;-79
2023/06/17 07:31:51;;;;;;;16.33;10.05;;;;;;;16.09;nan;100117.81;4965500;28;20289;-78
2023/06/17 07:34:16;;;;;;;18.42;9.48;;;;;;;;;;4962636;28;20118;-78
2023/06/17 07:36:41;;;;;;;15.77;8.83;;;;;;;;;;4962928;28;20501;-79
2023/06/17 07:39:07;;;;;;;12.97;9.13;;;;;;;;;;4967299;28;20023;-78
2023/06/17 07:41:32;;;;;;;16.60;9.48;;;;;;;;;;4964654;28;20288;-78
2023/06/17 07:43:58;;;;;;;15.80;10.00;;;;;;;;;;4961893;28;20019;-78
2023/06/17 07:46:23;;;;;;;18.07;10.30;;;;;;;;;;4963132;28;20793;-75
2023/06/17 07:48:48;;;;;;;18.00;11.03;;;;;;;;;;4960389;28;20031;-72
2023/06/17 07:51:13;;;;;;;15.67;10.57;;;;;;;;;;4969599;28;20673;-74
2023/06/17 07:53:39;;;;;;;19.63;10.47;;;;;;;;;;4965606;28;20027;-74
2023/06/17 07:56:05;;;;;;;15.35;10.18;;;;;;;;;;4968649;28;20273;-74
2023/06/17 07:58:30;;;;;;;15.00;10.43;;;;;;;;;;4963834;28;20449;-72
2023/06/17 08:00:56;;;;;;;18.13;10.47;;;;;;;;;;4964180;28;20042;-73
2023/06/17 08:03:22;;;;;;;17.67;10.23;;;;;;;;;;4963520;28;20035;-73
2023/06/17 08:05:47;;;;;;;15.63;9.80;;;;;;;;;;4966760;28;20039;-73
2023/06/17 08:08:12;;;;;;;15.40;9.63;;;;;;;;;;4959777;28;20030;-73
2023/06/17 08:10:37;;;;;;;16.30;9.03;;;;;;;;;;4960941;28;20027;-74
2023/06/17 08:13:03;;;;;;;15.67;9.60;;;;;;;;;;4966766;28;20077;-74
2023/06/17 08:15:28;;;;;;;15.30;10.17;;;;;;;;;;4964210;28;20288;-76
2023/06/17 08:17:58;;;;;;;17.07;9.50;;;;;;;;;;4959429;28;20356;-75
2023/06/17 08:20:26;;;;;;;16.13;9.88;;;;;;;;;;4962351;28;20289;-77
2023/06/17 08:22:51;;;;;;;16.58;10.20;;;;;;;;;;4956073;28;20062;-77
2023/06/17 08:25:17;;;;;;;17.23;10.50;;;;;;;;;;4959141;28;20030;-78
2023/06/17 08:27:47;;;;;;;13.37;9.77;;;;;;;;;;4957794;28;20059;-79
2023/06/17 08:30:12;;;;;;;15.85;10.60;;;;;;;;;;4953606;28;20529;-78
2023/06/17 08:32:37;;;;;;;16.10;10.32;;;;;;;;;;4958743;28;20031;-78
2023/06/17 08:35:06;;;;;;;20.57;11.90;;;;;;;;;;4961393;28;20086;-77
2023/06/17 08:37:31;;;;;;;19.23;11.63;;;;;;;;;;4960747;28;20045;-78
2023/06/17 08:39:56;;;;;;;21.63;11.23;;;;;;;;;;4961990;28;20365;-77
2023/06/17 08:42:22;;;;;;;16.90;11.10;;;;;;;;;;4961020;28;20042;-77
2023/06/17 08:44:48;;;;;;;17.37;10.90;;;;;;;16.50;nan;100123.84;4967383;28;20401;-77
2023/06/17 08:47:15;;;;;;;15.57;10.38;;;;;;;;;;4962190;28;20042;-78
2023/06/17 08:49:43;;;;;;;14.82;10.27;;;;;;;16.53;nan;100159.72;4961478;28;20038;-77
2023/06/17 08:52:11;;;;;;;17.20;10.80;;;;;;;;;;4965172;28;20026;-79
2023/06/17 08:54:40;;;;;;;16.52;10.88;;;;;;;;;;4959640;28;20027;-78
2023/06/17 08:57:09;;;;;;;17.20;11.45;;;;;;;16.67;nan;100096.13;4962048;28;20054;-78
2023/06/17 08:59:34;;;;;;;15.75;11.13;;;;;;;;;;4961071;28;20654;-79
2023/06/17 09:01:59;;;;;;;17.83;12.07;;;;;;;;;;4980104;28;20065;-79
2023/06/17 09:04:26;;;;;;;19.80;11.93;;;;;;;;;;4982470;28;20601;-79
2023/06/17 09:06:52;;;;;;;14.40;10.25;;;;;;;;;;4965623;28;20095;-79
2023/06/17 09:09:18;;;;;;;17.35;11.02;;;;;;;16.75;nan;100141.56;4983653;28;20117;-79
2023/06/17 09:11:47;;;;;;;17.42;11.77;;;;;;;;;;4979216;28;20059;-77
2023/06/17 09:14:16;;;;;;;14.18;10.07;;;;;;;16.84;nan;100151.66;4978986;28;20059;-79
2023/06/17 09:16:41;;;;;;;17.80;10.20;;;;;;;;;;4963115;28;20033;-77
2023/06/17 09:19:10;;;;;;;16.23;10.05;;;;;;;;;;4981715;28;20407;-80
2023/06/17 09:21:36;;;;;;;17.90;10.18;;;;;;;;;;4982492;28;20093;-78
2023/06/17 09:24:05;;;;;;;13.05;9.35;;;;;;;;;;4979533;28;20140;-78
2023/06/17 09:26:34;;;;;;;17.00;10.13;;;;;;;;;;4979528;28;20031;-78
2023/06/17 09:29:01;;;;;;;15.38;9.98;;;;;;;;;;4978066;28;20042;-79
2023/06/17 09:31:26;;;;;;;16.50;10.45;;;;;;;;;;4968556;28;20104;-79
2023/06/17 09:33:52;;;;;;;16.53;11.10;;;;;;;;;;4982286;28;20034;-78
2023/06/17 09:36:17;;;;;;;15.23;10.37;;;;;;;;;;4982870;28;20259;-79
2023/06/17 09:38:43;;;;;;;14.82;10.45;;;;;;;;;;4981629;28;20447;-79
2023/06/17 09:41:12;;;;;;;17.45;10.02;;;;;;;;;;4963549;28;20089;-80
2023/06/17 09:43:38;;;;;;;16.25;9.93;;;;;;;;;;4977799;28;20056;-80
2023/06/17 09:46:04;;;;;;;14.50;10.07;;;;;;;;;;4977100;28;20029;-74
2023/06/17 09:48:30;;;;;;;13.55;10.05;;;;;;;;;;4980823;28;20576;-74
2023/06/17 09:50:56;;;;;;;17.40;11.02;;;;;;;;;;4968344;28;20030;-74
2023/06/17 09:53:27;;;;;;;19.10;10.07;;;;;;;;;;4977555;28;20037;-80
2023/06/17 09:55:55;;;;;;;19.90;10.90;;;;;;;;;;4978117;28;20041;-74
2023/06/17 09:58:22;;;;;;;15.38;10.48;;;;;;;;;;4962174;28;20540;-74
2023/06/17 10:00:51;;;;;;;16.08;10.93;;;;;;;;;;4976556;28;20058;-72
2023/06/17 10:03:17;;;;;;;14.10;10.50;;;;;;;;;;4977799;28;20053;-72
2023/06/17 10:05:44;;;;;;;14.88;10.07;;;;;;;18.24;nan;100047.28;4980897;28;20084;-73
2023/06/17 10:08:10;;;;;;;16.35;10.25;;;;;;;;;;4976878;28;20040;-74
2023/06/17 10:10:36;;;;;;;17.88;11.70;;;;;;;;;;4965971;28;20022;-74
2023/06/17 10:13:01;;;;;;;14.45;10.73;;;;;;;;;;4981948;28;20030;-74
2023/06/17 10:15:28;;;;;;;16.95;11.98;;;;;;;18.35;nan;100111.97;4967793;28;20070;-74
2023/06/17 10:17:53;;;;;;;19.38;10.88;;;;;;;;;;4981265;28;20587;-73
2023/06/17 10:20:20;;;;;;;17.42;11.30;;;;;;;;;;4979220;28;20109;-74
2023/06/17 10:22:54;;;;;;;18.13;11.02;;;;;;;18.40;nan;100176.66;4977962;28;20366;-71
2023/06/17 10:25:19;;;;;;;17.25;11.68;;;;;;;;;;4979108;28;20037;-72
2023/06/17 10:27:45;;;;;;;16.05;10.82;;;;;;;;;;4979783;28;20038;-73
2023/06/17 10:30:24;;;;;;;15.38;10.68;;;;;;;;;;4979666;28;20022;-73
2023/06/17 10:32:54;;;;;;;18.80;10.95;;;;;;;;;;4976645;28;20161;-73
2023/06/17 10:35:43;;;;;;;14.82;10.77;;;;;;;18.55;nan;100114.38;4979649;28;20037;-70
2023/06/17 10:38:08;;;;;;;15.45;11.50;;;;;;;;;;4977003;28;20134;-72
2023/06/17 10:40:38;;;;;;;14.82;10.77;;;;;;;;;;4977780;28;20185;-82
2023/06/17 10:43:03;;;;;;;15.98;10.57;;;;;;;;;;4982268;28;20019;-78
2023/06/17 10:45:46;;;;;;;17.08;10.02;;;;;;;18.72;nan;100124.56;4979992;28;20034;-78
2023/06/17 10:48:28;;;;;;;16.75;10.70;;;;;;;18.78;nan;100144.81;4976200;28;20026;-80
2023/06/17 10:50:56;;;;;;;9.27;6.82;;;;;;;18.79;nan;100122.38;4976367;28;20026;-79
2023/06/17 10:53:29;;;;;;;12.32;6.47;;;;;;;18.82;nan;100123.69;4981429;28;20026;-78
2023/06/17 10:55:56;;;;;;;9.00;6.10;;;;;;;18.86;nan;100122.81;4976477;28;20026;-77
2023/06/17 10:58:21;;;;;;;8.35;5.60;;;;;;;;;;4960533;28;20027;-79
2023/06/17 11:00:57;;;;;;;7.20;6.13;;;;;;;18.91;nan;100097.94;4958511;28;20054;-78
2023/06/17 11:03:22;;;;;;;7.40;6.20;;;;;;;;;;4957015;28;20038;-79
2023/06/17 11:05:50;;;;;;;7.63;6.10;;;;;;;18.99;nan;100100.00;4959408;28;20026;-78
2023/06/17 11:08:16;;;;;;;11.68;6.43;;;;;;;19.07;nan;100117.22;4959775;28;20055;-79
2023/06/17 11:10:41;;;;;;;10.50;6.53;;;;;;;19.19;nan;100109.56;4958734;28;20045;-79
2023/06/17 11:13:06;;;;;;;8.90;6.60;;;;;;;19.24;nan;100127.41;4959686;28;20437;-79
2023/06/17 11:15:32;;;;;;;7.78;6.32;;;;;;;;;;4960633;28;20030;-79
2023/06/17 11:18:03;;;;;;;8.87;6.30;;;;;;;19.30;nan;100132.38;4957033;28;20038;-78
2023/06/17 11:20:32;;;;;;;8.77;5.65;;;;;;;19.34;nan;100129.91;4958311;28;20082;-78
2023/06/17 11:22:58;;;;;;;6.63;5.65;;;;;;;19.32;nan;100130.22;4957166;28;20031;-78
2023/06/17 11:25:23;;;;;;;9.35;6.18;;;;;;;19.33;nan;100126.44;4957871;28;20073;-79
2023/06/17 11:27:49;;;;;;;8.90;6.45;;;;;;;;;;4957655;28;20043;-79
2023/06/17 11:30:15;;;;;;;10.90;5.82;;;;;;;19.38;nan;100154.97;4958196;28;20039;-79
2023/06/17 11:32:41;;;;;;;8.60;6.43;;;;;;;19.38;nan;100127.47;4957223;28;20081;-79
2023/06/17 11:35:09;;;;;;;17.23;7.28;;;;;;;19.42;nan;100131.13;4956007;28;20085;-79
2023/06/17 11:37:34;;;;;;;7.07;5.93;;;;;;;19.50;nan;100123.25;4955688;28;20054;-78
2023/06/17 11:40:00;;;;;;;8.82;6.00;;;;;;;;;;4955348;28;20484;-78
2023/06/17 11:42:26;;;;;;;9.20;5.97;;;;;;;19.55;nan;100076.97;4956011;28;20130;-79
2023/06/17 11:44:51;;;;;;;8.55;6.25;;;;;;;;;;4958485;28;20026;-78
2023/06/17 11:47:17;;;;;;;8.35;6.32;;;;;;;19.52;nan;100106.94;4961666;28;20425;-79
2023/06/17 11:49:43;;;;;;;10.00;7.03;;;;;;;19.62;nan;100114.00;4958994;28;20142;-79
2023/06/17 11:52:11;;;;;;;7.82;6.55;;;;;;;19.65;nan;100119.53;4960468;28;20493;-79
2023/06/17 11:54:48;;;;;;;9.65;6.68;;;;;;;19.72;nan;100124.56;4956664;28;20035;-80
2023/06/17 11:57:18;;;;;;;10.98;6.47;;;;;;;19.74;nan;100111.69;4963944;28;20065;-79
2023/06/17 11:59:44;;;;;;;12.93;7.35;;;;;;;19.79;nan;100106.25;4955034;28;20442;-79
2023/06/17 12:02:10;;;;;;;8.15;6.72;;;;;;;19.82;nan;100104.88;4957429;28;20105;-78
2023/06/17 12:04:36;;;;;;;10.02;6.60;;;;;;;;;;4959935;28;20038;-78
2023/06/17 12:07:05;;;;;;;9.00;6.35;;;;;;;19.93;nan;100096.41;4956431;28;20034;-78
2023/06/17 12:09:35;;;;;;;8.93;6.53;;;;;;;19.90;nan;100038.19;4964021;28;20031;-78
2023/06/17 12:12:01;;;;;;;8.43;6.22;;;;;;;20.01;nan;100094.13;4958284;28;20026;-79
2023/06/17 12:14:27;;;;;;;8.07;6.05;;;;;;;20.11;nan;100134.84;4957235;28;20029;-78
2023/06/17 12:16:53;;;;;;;10.40;6.30;;;;;;;20.12;nan;100119.59;4957797;28;20046;-79
2023/06/17 12:19:23;;;;;;;10.95;6.78;;;;;;;20.18;nan;100102.34;4955732;28;20370;-77
2023/06/17 12:21:49;;;;;;;11.45;6.00;;;;;;;20.22;nan;100086.53;4958621;28;20026;-75
2023/06/17 12:24:15;;;;;;;7.45;6.20;;;;;;;20.27;nan;100095.22;4957559;28;20027;-76
2023/06/17 12:26:41;;;;;;;7.53;6.18;;;;;;;;;;4956789;28;20029;-75
2023/06/17 12:29:08;;;;;;;11.25;6.65;;;;;;;20.36;nan;100093.44;4958460;28;20038;-74
2023/06/17 12:31:34;;;;;;;9.77;6.50;;;;;;;;;;4957795;28;20599;-73
2023/06/17 12:33:59;;;;;;;11.30;6.78;;;;;;;20.52;nan;100096.63;4952073;28;20035;-73
2023/06/17 12:36:26;;;;;;;10.13;6.80;;;;;;;20.62;nan;100092.19;4951205;28;20034;-73
2023/06/17 12:38:52;;;;;;;9.40;7.20;;;;;;;20.67;nan;100089.41;4954597;28;20086;-73
2023/06/17 12:41:17;;;;;;;8.50;6.55;;;;;;;20.71;nan;100101.88;4950340;28;20027;-73
2023/06/17 12:43:44;;;;;;;10.05;6.90;;;;;;;20.78;nan;100168.34;4957925;28;20374;-73
2023/06/17 12:46:10;;;;;;;8.10;6.57;;;;;;;20.87;nan;100101.56;4955161;28;20064;-73
2023/06/17 12:48:35;;;;;;;9.43;6.45;;;;;;;20.92;nan;100136.22;4959135;28;20066;-72
2023/06/17 12:51:02;;;;;;;9.15;7.03;;;;;;;20.87;nan;100086.28;4956647;28;20043;-73
2023/06/17 12:53:28;;;;;;;8.18;7.10;;;;;;;20.93;nan;100082.41;4956705;28;20061;-73
2023/06/17 12:55:58;;;;;;;8.88;7.00;;;;;;;21.08;nan;100081.28;4958080;28;20486;-73
2023/06/17 12:58:24;;;;;;;9.15;6.97;;;;;;;21.11;nan;100107.44;4957589;28;20039;-73
2023/06/17 13:00:53;;;;;;;8.40;7.35;;;;;;;21.08;nan;100043.00;4951452;28;20054;-73
2023/06/17 13:03:19;;;;;;;10.00;6.68;;;;;;;21.22;nan;100124.06;4958981;28;20031;-73
2023/06/17 13:05:46;;;;;;;9.82;7.18;;;;;;;21.30;nan;100077.03;4962843;28;20035;-73
2023/06/17 13:08:12;;;;;;;9.90;7.38;;;;;;;21.37;nan;100072.81;4956913;28;20039;-73
2023/06/17 13:10:37;;;;;;;10.05;7.45;;;;;;;21.48;nan;100072.59;4964402;28;20023;-72
2023/06/17 13:13:03;;;;;;;9.75;7.20;;;;;;;21.46;nan;100102.38;4958868;28;20019;-73
2023/06/17 13:15:31;;;;;;;10.05;8.10;;;;;;;21.52;nan;100070.88;4956991;28;20393;-73
2023/06/17 13:17:56;;;;;;;12.07;7.47;;;;;;;21.52;nan;100046.78;4957792;28;20514;-74
2023/06/17 13:20:22;;;;;;;9.00;7.72;;;;;;;21.57;nan;100070.75;4960373;28;20026;-73
2023/06/17 13:22:47;;;;;;;10.75;7.53;;;;;;;21.58;nan;100067.78;4960747;28;20065;-74
2023/06/17 13:25:12;;;;;;;10.32;7.82;;;;;;;21.60;nan;100041.47;4960168;28;20109;-73
2023/06/17 13:27:38;;;;;;;11.68;7.75;;;;;;;21.62;nan;100102.78;4962160;28;20030;-73
2023/06/17 13:30:04;;;;;;;12.80;8.65;;;;;;;21.63;nan;100064.97;4959543;28;20082;-73
2023/06/17 13:32:29;;;;;;;10.02;7.68;;;;;;;21.67;nan;100074.00;4959331;28;20110;-73
2023/06/17 13:34:55;;;;;;;12.02;8.07;;;;;;;;;;4956985;28;20672;-72
2023/06/17 13:37:21;;;;;;;11.98;8.45;;;;;;;21.69;nan;100073.66;4957704;28;20109;-74